Terminal Aerodrome Forecast
Issued by NWS

Home | Current Version | Previous Version | Text Only | Print | Product List | Glossary On
Versions: 1 2 3 4 5 6 7 8 9 10 11 12 13 14 15 16 17 18 19 20 21 22
000
FTUS43 KDLH 272358
TAFHIB
TAF
KHIB 272358Z 2800/2824 25009KT P6SM VCSH SCT080
     FM280200 23007KT P6SM SCT070 BKN150
     FM280800 21005KT P6SM VCSH SCT035 BKN070
     FM281000 28006KT 6SM -SHRA BR BKN025 BKN080
     FM281700 30011G18KT P6SM VCSH BKN030
     FM282200 30012G18KT P6SM VCSH BKN040=

USA.gov is the U.S. government's official web portal to all federal, state and local government web resources and services.